sensor_id;sensor_type;location;lat;lon;timestamp;temperature;humidity
21417;DHT22;10869;52.238;10.716;2023-12-20T04:02:13;4.30;99.90
21417;DHT22;10869;52.238;10.716;2023-12-20T04:04:38;4.20;99.90
21417;DHT22;10869;52.238;10.716;2023-12-20T04:07:04;4.20;99.90
21417;DHT22;10869;52.238;10.716;2023-12-20T04:09:30;4.20;99.90
21417;DHT22;10869;52.238;10.716;2023-12-20T04:11:55;4.10;99.90
21417;DHT22;10869;52.238;10.716;2023-12-20T04:14:21;4.10;99.90
21417;DHT22;10869;52.238;10.716;2023-12-20T04:16:47;4.00;99.90
21417;DHT22;10869;52.238;10.716;2023-12-20T04:19:12;4.00;99.90
21417;DHT22;10869;52.238;10.716;2023-12-20T04:21:38;4.00;99.90
21417;DHT22;10869;52.238;10.716;2023-12-20T04:24:04;3.90;99.90
21417;DHT22;10869;52.238;10.716;2023-12-20T04:26:30;3.90;99.90
21417;DHT22;10869;52.238;10.716;2023-12-20T04:28:55;3.90;99.90
21417;DHT22;10869;52.238;10.716;2023-12-20T04:31:21;3.80;99.90
21417;DHT22;10869;52.238;10.716;2023-12-20T04:33:47;3.80;99.90
21417;DHT22;10869;52.238;10.716;2023-12-20T04:36:12;3.80;99.90
21417;DHT22;10869;52.238;10.716;2023-12-20T04:38:38;3.80;99.90
21417;DHT22;10869;52.238;10.716;2023-12-20T04:41:04;3.70;99.90
21417;DHT22;10869;52.238;10.716;2023-12-20T04:43:29;3.70;99.90
21417;DHT22;10869;52.238;10.716;2023-12-20T04:45:55;3.70;99.90
21417;DHT22;10869;52.238;10.716;2023-12-20T04:48:21;3.60;99.90
21417;DHT22;10869;52.238;10.716;2023-12-20T04:50:47;3.70;99.90
21417;DHT22;10869;52.238;10.716;2023-12-20T04:53:13;3.70;99.90
21417;DHT22;10869;52.238;10.716;2023-12-20T04:55:40;3.70;99.90
21417;DHT22;10869;52.238;10.716;2023-12-20T04:58:06;3.70;99.90
21417;DHT22;10869;52.238;10.716;2023-12-20T05:00:32;3.70;99.90
21417;DHT22;10869;52.238;10.716;2023-12-20T05:02:58;3.80;99.90
21417;DHT22;10869;52.238;10.716;2023-12-20T05:05:24;3.70;99.90
21417;DHT22;10869;52.238;10.716;2023-12-20T05:07:50;3.80;99.90
21417;DHT22;10869;52.238;10.716;2023-12-20T05:10:18;3.80;99.90
21417;DHT22;10869;52.238;10.716;2023-12-20T05:12:46;3.80;99.90
21417;DHT22;10869;52.238;10.716;2023-12-20T05:15:23;3.90;99.90
21417;DHT22;10869;52.238;10.716;2023-12-20T05:18:08;3.90;99.90
21417;DHT22;10869;52.238;10.716;2023-12-20T05:20:34;4.00;99.90
21417;DHT22;10869;52.238;10.716;2023-12-20T05:23:01;4.00;99.90
21417;DHT22;10869;52.238;10.716;2023-12-20T05:25:26;4.00;99.90
21417;DHT22;10869;52.238;10.716;2023-12-20T05:27:53;4.00;99.90
21417;DHT22;10869;52.238;10.716;2023-12-20T05:30:20;4.10;99.90
21417;DHT22;10869;52.238;10.716;2023-12-20T05:32:49;4.10;99.90
21417;DHT22;10869;52.238;10.716;2023-12-20T05:35:17;4.20;99.90
21417;DHT22;10869;52.238;10.716;2023-12-20T05:41:06;4.30;99.90
21417;DHT22;10869;52.238;10.716;2023-12-20T05:43:33;4.40;99.90
21417;DHT22;10869;52.238;10.716;2023-12-20T05:46:00;4.40;99.90
21417;DHT22;10869;52.238;10.716;2023-12-20T05:48:27;4.40;99.90
21417;DHT22;10869;52.238;10.716;2023-12-20T05:50:57;4.50;99.90
21417;DHT22;10869;52.238;10.716;2023-12-20T05:53:27;4.50;99.90
21417;DHT22;10869;52.238;10.716;2023-12-20T05:56:00;4.50;99.90
21417;DHT22;10869;52.238;10.716;2023-12-20T05:58:26;4.50;99.90
21417;DHT22;10869;52.238;10.716;2023-12-20T06:00:58;4.50;99.90
21417;DHT22;10869;52.238;10.716;2023-12-20T06:03:27;4.50;99.90
21417;DHT22;10869;52.238;10.716;2023-12-20T06:05:53;4.60;99.90
21417;DHT22;10869;52.238;10.716;2023-12-20T06:08:21;4.60;99.90
21417;DHT22;10869;52.238;10.716;2023-12-20T06:10:50;4.60;99.90
21417;DHT22;10869;52.238;10.716;2023-12-20T06:13:22;4.60;99.90
21417;DHT22;10869;52.238;10.716;2023-12-20T06:15:52;4.60;99.90
21417;DHT22;10869;52.238;10.716;2023-12-20T06:18:21;4.70;99.90
21417;DHT22;10869;52.238;10.716;2023-12-20T06:20:47;4.70;99.90
21417;DHT22;10869;52.238;10.716;2023-12-20T06:23:16;4.70;99.90
21417;DHT22;10869;52.238;10.716;2023-12-20T06:25:49;4.70;99.90
21417;DHT22;10869;52.238;10.716;2023-12-20T06:28:17;4.80;99.90
21417;DHT22;10869;52.238;10.716;2023-12-20T06:30:45;4.80;99.90
21417;DHT22;10869;52.238;10.716;2023-12-20T06:33:15;4.80;99.90
21417;DHT22;10869;52.238;10.716;2023-12-20T06:35:41;4.80;99.90
21417;DHT22;10869;52.238;10.716;2023-12-20T06:38:07;4.80;99.90
21417;DHT22;10869;52.238;10.716;2023-12-20T06:40:34;4.80;99.90
21417;DHT22;10869;52.238;10.716;2023-12-20T06:43:00;4.80;99.90
21417;DHT22;10869;52.238;10.716;2023-12-20T06:45:28;4.80;99.90
21417;DHT22;10869;52.238;10.716;2023-12-20T06:47:54;4.80;99.90
21417;DHT22;10869;52.238;10.716;2023-12-20T06:50:20;4.80;99.90
21417;DHT22;10869;52.238;10.716;2023-12-20T06:52:46;4.80;99.90
21417;DHT22;10869;52.238;10.716;2023-12-20T06:55:12;4.90;99.90
21417;DHT22;10869;52.238;10.716;2023-12-20T06:57:37;4.90;99.90
21417;DHT22;10869;52.238;10.716;2023-12-20T07:00:04;4.90;99.90
21417;DHT22;10869;52.238;10.716;2023-12-20T07:02:30;5.00;99.90
21417;DHT22;10869;52.238;10.716;2023-12-20T07:04:56;4.90;99.90
21417;DHT22;10869;52.238;10.716;2023-12-20T07:07:21;4.90;99.90
21417;DHT22;10869;52.238;10.716;2023-12-20T07:09:48;4.90;99.90
21417;DHT22;10869;52.238;10.716;2023-12-20T07:12:14;4.90;99.90
21417;DHT22;10869;52.238;10.716;2023-12-20T07:14:40;5.00;99.90
21417;DHT22;10869;52.238;10.716;2023-12-20T07:20:28;5.00;99.90
21417;DHT22;10869;52.238;10.716;2023-12-20T07:22:54;5.00;99.90
21417;DHT22;10869;52.238;10.716;2023-12-20T07:25:20;5.00;99.90
21417;DHT22;10869;52.238;10.716;2023-12-20T07:27:46;5.00;99.90
21417;DHT22;10869;52.238;10.716;2023-12-20T07:30:12;5.00;99.90
21417;DHT22;10869;52.238;10.716;2023-12-20T07:32:40;5.00;99.90
21417;DHT22;10869;52.238;10.716;2023-12-20T07:35:06;5.00;99.90
21417;DHT22;10869;52.238;10.716;2023-12-20T07:37:32;5.00;99.90
21417;DHT22;10869;52.238;10.716;2023-12-20T07:39:58;5.00;99.90
21417;DHT22;10869;52.238;10.716;2023-12-20T07:42:23;5.00;99.90
21417;DHT22;10869;52.238;10.716;2023-12-20T07:44:49;5.00;99.90
21417;DHT22;10869;52.238;10.716;2023-12-20T07:47:15;5.10;99.90
21417;DHT22;10869;52.238;10.716;2023-12-20T07:49:44;5.10;99.90
21417;DHT22;10869;52.238;10.716;2023-12-20T07:52:10;5.10;99.90
21417;DHT22;10869;52.238;10.716;2023-12-20T07:54:36;5.10;99.90
21417;DHT22;10869;52.238;10.716;2023-12-20T07:57:01;5.10;99.90
21417;DHT22;10869;52.238;10.716;2023-12-20T07:59:27;5.10;99.90
21417;DHT22;10869;52.238;10.716;2023-12-20T08:01:56;5.10;99.90
21417;DHT22;10869;52.238;10.716;2023-12-20T08:04:22;5.00;99.90
21417;DHT22;10869;52.238;10.716;2023-12-20T08:06:48;5.00;99.90
21417;DHT22;10869;52.238;10.716;2023-12-20T08:09:13;5.00;99.90
21417;DHT22;10869;52.238;10.716;2023-12-20T08:11:39;4.90;99.90
21417;DHT22;10869;52.238;10.716;2023-12-20T08:14:05;4.90;99.90
21417;DHT22;10869;52.238;10.716;2023-12-20T08:19:53;4.80;99.90
21417;DHT22;10869;52.238;10.716;2023-12-20T08:22:18;4.80;99.90
21417;DHT22;10869;52.238;10.716;2023-12-20T08:24:44;4.90;99.90
21417;DHT22;10869;52.238;10.716;2023-12-20T08:27:10;4.90;99.90
21417;DHT22;10869;52.238;10.716;2023-12-20T08:29:35;4.90;99.90
21417;DHT22;10869;52.238;10.716;2023-12-20T08:32:02;5.00;99.90
21417;DHT22;10869;52.238;10.716;2023-12-20T08:34:28;5.10;99.90
21417;DHT22;10869;52.238;10.716;2023-12-20T08:36:54;5.10;99.90
21417;DHT22;10869;52.238;10.716;2023-12-20T08:39:19;5.10;99.90
21417;DHT22;10869;52.238;10.716;2023-12-20T08:41:45;5.20;99.90
21417;DHT22;10869;52.238;10.716;2023-12-20T08:44:11;5.20;99.90
21417;DHT22;10869;52.238;10.716;2023-12-20T08:46:36;5.20;99.90
21417;DHT22;10869;52.238;10.716;2023-12-20T08:49:02;5.20;99.90
21417;DHT22;10869;52.238;10.716;2023-12-20T08:51:28;5.20;99.90
21417;DHT22;10869;52.238;10.716;2023-12-20T08:53:54;5.20;99.90
21417;DHT22;10869;52.238;10.716;2023-12-20T08:56:20;5.20;99.90
21417;DHT22;10869;52.238;10.716;2023-12-20T08:58:46;5.30;99.90
21417;DHT22;10869;52.238;10.716;2023-12-20T09:01:13;5.30;99.90
21417;DHT22;10869;52.238;10.716;2023-12-20T09:03:40;5.30;99.90
21417;DHT22;10869;52.238;10.716;2023-12-20T09:06:06;5.30;99.90
21417;DHT22;10869;52.238;10.716;2023-12-20T09:11:56;5.30;99.90
21417;DHT22;10869;52.238;10.716;2023-12-20T09:17:45;5.30;99.90
21417;DHT22;10869;52.238;10.716;2023-12-20T09:20:13;5.30;99.90
21417;DHT22;10869;52.238;10.716;2023-12-20T09:22:39;5.30;99.90
21417;DHT22;10869;52.238;10.716;2023-12-20T09:25:08;5.30;99.90
21417;DHT22;10869;52.238;10.716;2023-12-20T09:27:35;5.30;99.90
21417;DHT22;10869;52.238;10.716;2023-12-20T09:30:01;5.40;99.90
21417;DHT22;10869;52.238;10.716;2023-12-20T09:32:27;5.40;99.90
21417;DHT22;10869;52.238;10.716;2023-12-20T09:34:55;5.50;99.90
21417;DHT22;10869;52.238;10.716;2023-12-20T09:37:27;5.50;99.90
21417;DHT22;10869;52.238;10.716;2023-12-20T09:40:29;5.50;99.90
21417;DHT22;10869;52.238;10.716;2023-12-20T09:43:07;5.60;99.90
21417;DHT22;10869;52.238;10.716;2023-12-20T09:45:53;5.60;99.90
21417;DHT22;10869;52.238;10.716;2023-12-20T09:48:19;5.60;99.90
21417;DHT22;10869;52.238;10.716;2023-12-20T09:50:46;5.60;99.90
21417;DHT22;10869;52.238;10.716;2023-12-20T09:53:18;5.70;99.90
21417;DHT22;10869;52.238;10.716;2023-12-20T09:55:48;5.70;99.90
21417;DHT22;10869;52.238;10.716;2023-12-20T09:58:15;5.70;99.90
21417;DHT22;10869;52.238;10.716;2023-12-20T10:00:40;5.70;99.90
21417;DHT22;10869;52.238;10.716;2023-12-20T10:03:06;5.70;99.90
21417;DHT22;10869;52.238;10.716;2023-12-20T10:05:33;5.70;99.90
21417;DHT22;10869;52.238;10.716;2023-12-20T10:11:29;5.60;99.90
21417;DHT22;10869;52.238;10.716;2023-12-20T10:14:01;5.50;99.90
21417;DHT22;10869;52.238;10.716;2023-12-20T10:16:28;5.50;99.90
21417;DHT22;10869;52.238;10.716;2023-12-20T10:18:54;5.50;99.90
21417;DHT22;10869;52.238;10.716;2023-12-20T10:21:21;5.50;99.90
21417;DHT22;10869;52.238;10.716;2023-12-20T10:23:51;5.50;99.90
21417;DHT22;10869;52.238;10.716;2023-12-20T10:26:20;5.50;99.90
21417;DHT22;10869;52.238;10.716;2023-12-20T10:28:49;5.60;99.90
21417;DHT22;10869;52.238;10.716;2023-12-20T10:31:32;5.60;99.90
21417;DHT22;10869;52.238;10.716;2023-12-20T10:33:59;5.60;99.90
21417;DHT22;10869;52.238;10.716;2023-12-20T10:36:26;5.60;99.90
21417;DHT22;10869;52.238;10.716;2023-12-20T10:38:53;5.60;99.90
21417;DHT22;10869;52.238;10.716;2023-12-20T10:41:27;5.60;99.90
21417;DHT22;10869;52.238;10.716;2023-12-20T10:44:00;5.70;99.90
21417;DHT22;10869;52.238;10.716;2023-12-20T10:46:27;5.70;99.90
21417;DHT22;10869;52.238;10.716;2023-12-20T10:48:54;5.80;99.90
21417;DHT22;10869;52.238;10.716;2023-12-20T10:51:21;5.90;99.90
21417;DHT22;10869;52.238;10.716;2023-12-20T10:53:49;5.90;99.90
21417;DHT22;10869;52.238;10.716;2023-12-20T10:56:17;5.80;99.90
21417;DHT22;10869;52.238;10.716;2023-12-20T10:58:44;5.80;99.90
21417;DHT22;10869;52.238;10.716;2023-12-20T11:01:18;5.80;99.90
21417;DHT22;10869;52.238;10.716;2023-12-20T11:03:54;5.80;99.90
21417;DHT22;10869;52.238;10.716;2023-12-20T11:06:36;5.80;99.90
21417;DHT22;10869;52.238;10.716;2023-12-20T11:09:31;5.80;99.90
21417;DHT22;10869;52.238;10.716;2023-12-20T11:12:15;5.90;99.90
21417;DHT22;10869;52.238;10.716;2023-12-20T11:18:05;5.90;99.90
21417;DHT22;10869;52.238;10.716;2023-12-20T11:20:41;5.90;99.90
21417;DHT22;10869;52.238;10.716;2023-12-20T11:23:10;5.90;99.90
21417;DHT22;10869;52.238;10.716;2023-12-20T11:25:52;5.90;99.90
21417;DHT22;10869;52.238;10.716;2023-12-20T11:28:26;5.90;99.90
21417;DHT22;10869;52.238;10.716;2023-12-20T11:30:53;5.90;99.90
21417;DHT22;10869;52.238;10.716;2023-12-20T11:33:30;5.90;99.90
21417;DHT22;10869;52.238;10.716;2023-12-20T11:35:57;5.90;99.90
21417;DHT22;10869;52.238;10.716;2023-12-20T11:38:25;5.80;99.90
21417;DHT22;10869;52.238;10.716;2023-12-20T11:40:53;5.80;99.90
21417;DHT22;10869;52.238;10.716;2023-12-20T11:43:36;5.80;99.90
21417;DHT22;10869;52.238;10.716;2023-12-20T11:46:06;5.90;99.90
21417;DHT22;10869;52.238;10.716;2023-12-20T11:48:34;5.80;99.90
21417;DHT22;10869;52.238;10.716;2023-12-20T11:51:00;5.90;99.90
21417;DHT22;10869;52.238;10.716;2023-12-20T11:53:36;5.90;99.90
21417;DHT22;10869;52.238;10.716;2023-12-20T11:56:06;5.90;99.90
21417;DHT22;10869;52.238;10.716;2023-12-20T11:58:35;5.90;99.90
21417;DHT22;10869;52.238;10.716;2023-12-20T12:01:01;6.00;99.90
21417;DHT22;10869;52.238;10.716;2023-12-20T12:03:34;5.90;99.90
21417;DHT22;10869;52.238;10.716;2023-12-20T12:06:00;5.90;99.90
21417;DHT22;10869;52.238;10.716;2023-12-20T12:08:26;6.00;99.90
21417;DHT22;10869;52.238;10.716;2023-12-20T12:10:57;6.00;99.90
21417;DHT22;10869;52.238;10.716;2023-12-20T12:16:47;6.00;99.90
21417;DHT22;10869;52.238;10.716;2023-12-20T12:19:24;6.00;99.90
21417;DHT22;10869;52.238;10.716;2023-12-20T12:22:13;5.90;99.90
21417;DHT22;10869;52.238;10.716;2023-12-20T12:24:46;5.90;99.90
21417;DHT22;10869;52.238;10.716;2023-12-20T12:27:13;5.90;99.90
21417;DHT22;10869;52.238;10.716;2023-12-20T12:33:02;5.80;99.90
21417;DHT22;10869;52.238;10.716;2023-12-20T12:35:47;5.80;99.90
21417;DHT22;10869;52.238;10.716;2023-12-20T12:41:25;5.70;99.90
21417;DHT22;10869;52.238;10.716;2023-12-20T12:47:17;5.60;99.90
21417;DHT22;10869;52.238;10.716;2023-12-20T12:49:52;5.60;99.90
21417;DHT22;10869;52.238;10.716;2023-12-20T12:52:32;5.70;99.90
21417;DHT22;10869;52.238;10.716;2023-12-20T12:55:01;5.70;99.90
21417;DHT22;10869;52.238;10.716;2023-12-20T13:00:51;5.70;99.90
21417;DHT22;10869;52.238;10.716;2023-12-20T13:03:44;5.60;99.90
21417;DHT22;10869;52.238;10.716;2023-12-20T13:06:13;5.60;99.90
21417;DHT22;10869;52.238;10.716;2023-12-20T13:09:01;5.60;99.90
21417;DHT22;10869;52.238;10.716;2023-12-20T13:14:56;5.60;99.90
21417;DHT22;10869;52.238;10.716;2023-12-20T13:26:43;5.40;99.90
21417;DHT22;10869;52.238;10.716;2023-12-20T13:29:09;5.30;99.90
21417;DHT22;10869;52.238;10.716;2023-12-20T13:31:35;5.20;99.90
21417;DHT22;10869;52.238;10.716;2023-12-20T13:34:02;5.20;99.90
21417;DHT22;10869;52.238;10.716;2023-12-20T13:36:27;5.10;99.90
21417;DHT22;10869;52.238;10.716;2023-12-20T13:38:53;5.00;99.90
21417;DHT22;10869;52.238;10.716;2023-12-20T13:41:20;4.90;99.90
21417;DHT22;10869;52.238;10.716;2023-12-20T13:43:45;4.90;99.90
21417;DHT22;10869;52.238;10.716;2023-12-20T13:46:11;4.90;99.90
21417;DHT22;10869;52.238;10.716;2023-12-20T13:48:37;4.80;99.90
21417;DHT22;10869;52.238;10.716;2023-12-20T13:51:03;4.80;99.90
21417;DHT22;10869;52.238;10.716;2023-12-20T13:53:29;4.70;99.90
21417;DHT22;10869;52.238;10.716;2023-12-20T13:55:55;4.70;99.90
21417;DHT22;10869;52.238;10.716;2023-12-20T13:58:21;4.70;99.90
21417;DHT22;10869;52.238;10.716;2023-12-20T14:00:47;4.70;99.90
21417;DHT22;10869;52.238;10.716;2023-12-20T14:03:13;4.70;99.90
21417;DHT22;10869;52.238;10.716;2023-12-20T14:05:39;4.80;99.90
21417;DHT22;10869;52.238;10.716;2023-12-20T14:08:07;4.80;99.90
21417;DHT22;10869;52.238;10.716;2023-12-20T14:10:33;4.80;99.90
21417;DHT22;10869;52.238;10.716;2023-12-20T14:16:21;4.70;99.90
21417;DHT22;10869;52.238;10.716;2023-12-20T14:22:11;4.70;99.90
21417;DHT22;10869;52.238;10.716;2023-12-20T14:27:59;4.70;99.90
21417;DHT22;10869;52.238;10.716;2023-12-20T14:30:25;4.70;99.90
21417;DHT22;10869;52.238;10.716;2023-12-20T14:32:57;4.70;99.90
21417;DHT22;10869;52.238;10.716;2023-12-20T14:38:56;4.70;99.90
21417;DHT22;10869;52.238;10.716;2023-12-20T14:41:31;4.70;99.90
21417;DHT22;10869;52.238;10.716;2023-12-20T14:44:09;4.60;99.90
21417;DHT22;10869;52.238;10.716;2023-12-20T14:46:38;4.70;99.90
21417;DHT22;10869;52.238;10.716;2023-12-20T14:49:25;4.70;99.90
21417;DHT22;10869;52.238;10.716;2023-12-20T14:51:51;4.70;99.90
21417;DHT22;10869;52.238;10.716;2023-12-20T14:54:16;4.70;99.90
21417;DHT22;10869;52.238;10.716;2023-12-20T14:56:51;4.70;99.90
21417;DHT22;10869;52.238;10.716;2023-12-20T15:05:46;4.80;99.90
21417;DHT22;10869;52.238;10.716;2023-12-20T15:08:16;4.80;99.90
21417;DHT22;10869;52.238;10.716;2023-12-20T15:10:43;4.80;99.90
21417;DHT22;10869;52.238;10.716;2023-12-20T15:13:09;4.90;99.90
21417;DHT22;10869;52.238;10.716;2023-12-20T15:15:34;4.90;99.90
21417;DHT22;10869;52.238;10.716;2023-12-20T15:18:01;4.90;99.90
21417;DHT22;10869;52.238;10.716;2023-12-20T15:20:29;4.90;99.90
21417;DHT22;10869;52.238;10.716;2023-12-20T15:22:55;4.90;99.90
21417;DHT22;10869;52.238;10.716;2023-12-20T15:28:49;4.90;99.90
21417;DHT22;10869;52.238;10.716;2023-12-20T15:31:14;4.90;99.90
21417;DHT22;10869;52.238;10.716;2023-12-20T15:33:40;4.90;99.90
21417;DHT22;10869;52.238;10.716;2023-12-20T15:36:06;4.90;99.90
21417;DHT22;10869;52.238;10.716;2023-12-20T15:38:35;4.90;99.90
21417;DHT22;10869;52.238;10.716;2023-12-20T15:41:01;4.90;99.90
21417;DHT22;10869;52.238;10.716;2023-12-20T15:43:29;5.00;99.90
21417;DHT22;10869;52.238;10.716;2023-12-20T15:45:56;5.00;99.90
21417;DHT22;10869;52.238;10.716;2023-12-20T15:48:23;5.00;99.90
21417;DHT22;10869;52.238;10.716;2023-12-20T15:51:03;5.00;99.90
21417;DHT22;10869;52.238;10.716;2023-12-20T15:56:55;5.00;99.90
21417;DHT22;10869;52.238;10.716;2023-12-20T15:59:20;5.00;99.90
21417;DHT22;10869;52.238;10.716;2023-12-20T16:01:46;5.00;99.90
21417;DHT22;10869;52.238;10.716;2023-12-20T16:04:12;5.00;99.90
21417;DHT22;10869;52.238;10.716;2023-12-20T16:06:38;5.00;99.90
21417;DHT22;10869;52.238;10.716;2023-12-20T16:12:26;5.00;99.90
21417;DHT22;10869;52.238;10.716;2023-12-20T16:14:52;5.00;99.90
21417;DHT22;10869;52.238;10.716;2023-12-20T16:17:18;5.00;99.90
21417;DHT22;10869;52.238;10.716;2023-12-20T16:19:45;5.00;99.90
21417;DHT22;10869;52.238;10.716;2023-12-20T16:22:11;5.00;99.90
21417;DHT22;10869;52.238;10.716;2023-12-20T16:24:37;5.00;99.90
21417;DHT22;10869;52.238;10.716;2023-12-20T16:30:25;5.00;99.90
21417;DHT22;10869;52.238;10.716;2023-12-20T16:36:13;4.90;99.90
21417;DHT22;10869;52.238;10.716;2023-12-20T16:38:39;4.90;99.90
21417;DHT22;10869;52.238;10.716;2023-12-20T16:44:27;4.90;99.90
21417;DHT22;10869;52.238;10.716;2023-12-20T16:46:52;4.80;99.90
21417;DHT22;10869;52.238;10.716;2023-12-20T16:49:19;4.80;99.90
21417;DHT22;10869;52.238;10.716;2023-12-20T16:51:50;4.70;99.90
21417;DHT22;10869;52.238;10.716;2023-12-20T16:57:01;4.70;99.90
21417;DHT22;10869;52.238;10.716;2023-12-20T17:00:00;4.60;99.90
21417;DHT22;10869;52.238;10.716;2023-12-20T17:19:46;4.30;99.90
21417;DHT22;10869;52.238;10.716;2023-12-20T17:22:30;4.30;99.90
21417;DHT22;10869;52.238;10.716;2023-12-20T17:25:16;4.20;99.90
21417;DHT22;10869;52.238;10.716;2023-12-20T17:27:52;4.20;99.90
21417;DHT22;10869;52.238;10.716;2023-12-20T17:30:18;4.20;99.90
21417;DHT22;10869;52.238;10.716;2023-12-20T17:32:56;4.20;99.90
21417;DHT22;10869;52.238;10.716;2023-12-20T17:35:25;4.20;99.90
21417;DHT22;10869;52.238;10.716;2023-12-20T17:41:13;4.10;99.90
21417;DHT22;10869;52.238;10.716;2023-12-20T17:47:00;4.20;99.90
21417;DHT22;10869;52.238;10.716;2023-12-20T17:52:48;4.20;99.90
21417;DHT22;10869;52.238;10.716;2023-12-20T17:55:14;4.20;99.90
21417;DHT22;10869;52.238;10.716;2023-12-20T17:57:39;4.10;99.90
21417;DHT22;10869;52.238;10.716;2023-12-20T18:00:41;4.10;99.90
21417;DHT22;10869;52.238;10.716;2023-12-20T18:03:11;4.10;99.90
21417;DHT22;10869;52.238;10.716;2023-12-20T18:05:42;4.10;99.90
21417;DHT22;10869;52.238;10.716;2023-12-20T18:08:08;4.10;99.90
21417;DHT22;10869;52.238;10.716;2023-12-20T18:14:00;4.10;99.90
21417;DHT22;10869;52.238;10.716;2023-12-20T18:16:52;4.10;99.90
21417;DHT22;10869;52.238;10.716;2023-12-20T18:23:00;4.00;99.90
21417;DHT22;10869;52.238;10.716;2023-12-20T18:25:26;4.00;99.90
21417;DHT22;10869;52.238;10.716;2023-12-20T18:27:54;4.00;99.90
21417;DHT22;10869;52.238;10.716;2023-12-20T18:30:20;4.00;99.90
21417;DHT22;10869;52.238;10.716;2023-12-20T18:32:46;3.90;99.90
21417;DHT22;10869;52.238;10.716;2023-12-20T18:35:12;3.90;99.90
21417;DHT22;10869;52.238;10.716;2023-12-20T18:37:37;3.90;99.90
21417;DHT22;10869;52.238;10.716;2023-12-20T18:40:04;3.90;99.90
21417;DHT22;10869;52.238;10.716;2023-12-20T18:42:31;3.90;99.90
21417;DHT22;10869;52.238;10.716;2023-12-20T18:48:19;3.90;99.90
21417;DHT22;10869;52.238;10.716;2023-12-20T18:54:08;3.90;99.90
21417;DHT22;10869;52.238;10.716;2023-12-20T18:56:34;3.90;99.90
21417;DHT22;10869;52.238;10.716;2023-12-20T19:05:38;4.00;99.90
21417;DHT22;10869;52.238;10.716;2023-12-20T19:12:07;3.90;99.90
21417;DHT22;10869;52.238;10.716;2023-12-20T19:34:13;4.10;99.90
21417;DHT22;10869;52.238;10.716;2023-12-20T19:36:55;4.00;99.90
21417;DHT22;10869;52.238;10.716;2023-12-20T19:39:33;4.00;99.90
21417;DHT22;10869;52.238;10.716;2023-12-20T19:42:00;4.00;99.90
21417;DHT22;10869;52.238;10.716;2023-12-20T19:44:26;4.00;99.90
21417;DHT22;10869;52.238;10.716;2023-12-20T19:46:53;4.10;99.90
21417;DHT22;10869;52.238;10.716;2023-12-20T19:55:17;4.20;99.90
21417;DHT22;10869;52.238;10.716;2023-12-20T19:57:43;4.20;99.90
21417;DHT22;10869;52.238;10.716;2023-12-20T20:00:10;4.20;99.90
21417;DHT22;10869;52.238;10.716;2023-12-20T20:02:35;4.20;99.90
21417;DHT22;10869;52.238;10.716;2023-12-20T20:05:06;4.20;99.90
21417;DHT22;10869;52.238;10.716;2023-12-20T20:10:57;4.30;99.90
21417;DHT22;10869;52.238;10.716;2023-12-20T20:13:33;4.30;99.90
21417;DHT22;10869;52.238;10.716;2023-12-20T20:15:59;4.30;99.90
21417;DHT22;10869;52.238;10.716;2023-12-20T20:21:31;4.40;99.90
21417;DHT22;10869;52.238;10.716;2023-12-20T20:23:56;4.40;99.90
21417;DHT22;10869;52.238;10.716;2023-12-20T20:29:44;4.40;99.90
21417;DHT22;10869;52.238;10.716;2023-12-20T20:37:59;4.50;99.90
21417;DHT22;10869;52.238;10.716;2023-12-20T20:40:25;4.50;99.90
21417;DHT22;10869;52.238;10.716;2023-12-20T20:46:16;4.50;99.90
21417;DHT22;10869;52.238;10.716;2023-12-20T20:52:07;4.50;99.90
21417;DHT22;10869;52.238;10.716;2023-12-20T20:57:55;4.60;99.90
21417;DHT22;10869;52.238;10.716;2023-12-20T21:03:42;4.70;99.90
21417;DHT22;10869;52.238;10.716;2023-12-20T21:06:08;4.70;99.90
21417;DHT22;10869;52.238;10.716;2023-12-20T21:08:34;4.70;99.90
21417;DHT22;10869;52.238;10.716;2023-12-20T21:10:59;4.80;99.90
21417;DHT22;10869;52.238;10.716;2023-12-20T21:13:25;4.80;99.90
21417;DHT22;10869;52.238;10.716;2023-12-20T21:15:51;4.80;99.90
21417;DHT22;10869;52.238;10.716;2023-12-20T21:18:17;4.90;99.90
21417;DHT22;10869;52.238;10.716;2023-12-20T21:20:43;4.90;99.90
21417;DHT22;10869;52.238;10.716;2023-12-20T21:23:10;5.00;99.90
21417;DHT22;10869;52.238;10.716;2023-12-20T21:28:58;5.00;99.90
21417;DHT22;10869;52.238;10.716;2023-12-20T21:31:24;5.10;99.90
21417;DHT22;10869;52.238;10.716;2023-12-20T21:37:25;5.10;99.90
21417;DHT22;10869;52.238;10.716;2023-12-20T21:39:51;5.10;99.90
21417;DHT22;10869;52.238;10.716;2023-12-20T21:42:26;5.10;99.90
21417;DHT22;10869;52.238;10.716;2023-12-20T21:44:52;5.10;99.90
21417;DHT22;10869;52.238;10.716;2023-12-20T21:47:18;5.20;99.90
21417;DHT22;10869;52.238;10.716;2023-12-20T21:49:44;5.20;99.90
21417;DHT22;10869;52.238;10.716;2023-12-20T21:52:10;5.20;99.90
21417;DHT22;10869;52.238;10.716;2023-12-20T21:57:58;5.20;99.90
21417;DHT22;10869;52.238;10.716;2023-12-20T22:00:23;5.30;99.90
21417;DHT22;10869;52.238;10.716;2023-12-20T22:02:49;5.30;99.90
21417;DHT22;10869;52.238;10.716;2023-12-20T22:05:15;5.30;99.90
21417;DHT22;10869;52.238;10.716;2023-12-20T22:07:41;5.30;99.90
21417;DHT22;10869;52.238;10.716;2023-12-20T22:10:07;5.30;99.90
21417;DHT22;10869;52.238;10.716;2023-12-20T22:12:33;5.30;99.90
21417;DHT22;10869;52.238;10.716;2023-12-20T22:14:59;5.40;99.90
21417;DHT22;10869;52.238;10.716;2023-12-20T22:17:25;5.40;99.90
21417;DHT22;10869;52.238;10.716;2023-12-20T22:19:51;5.40;99.90
21417;DHT22;10869;52.238;10.716;2023-12-20T22:22:17;5.40;99.90
21417;DHT22;10869;52.238;10.716;2023-12-20T22:24:42;5.40;99.90
21417;DHT22;10869;52.238;10.716;2023-12-20T22:27:08;5.50;99.90
21417;DHT22;10869;52.238;10.716;2023-12-20T22:29:34;5.50;99.90
21417;DHT22;10869;52.238;10.716;2023-12-20T22:32:00;5.50;99.90
21417;DHT22;10869;52.238;10.716;2023-12-20T22:34:25;5.50;99.90
21417;DHT22;10869;52.238;10.716;2023-12-20T22:36:51;5.50;99.90
21417;DHT22;10869;52.238;10.716;2023-12-20T22:39:17;5.50;99.90
21417;DHT22;10869;52.238;10.716;2023-12-20T22:41:42;5.50;99.90
21417;DHT22;10869;52.238;10.716;2023-12-20T22:44:10;5.60;99.90
21417;DHT22;10869;52.238;10.716;2023-12-20T22:46:36;5.60;99.90
21417;DHT22;10869;52.238;10.716;2023-12-20T22:49:01;5.60;99.90
21417;DHT22;10869;52.238;10.716;2023-12-20T22:51:27;5.60;99.90
21417;DHT22;10869;52.238;10.716;2023-12-20T22:53:54;5.60;99.90
21417;DHT22;10869;52.238;10.716;2023-12-20T22:56:22;5.70;99.90
21417;DHT22;10869;52.238;10.716;2023-12-20T22:58:49;5.70;99.90
21417;DHT22;10869;52.238;10.716;2023-12-20T23:01:16;5.70;99.90
21417;DHT22;10869;52.238;10.716;2023-12-20T23:03:42;5.70;99.90
21417;DHT22;10869;52.238;10.716;2023-12-20T23:06:08;5.80;99.90
21417;DHT22;10869;52.238;10.716;2023-12-20T23:08:34;5.80;99.90
21417;DHT22;10869;52.238;10.716;2023-12-20T23:11:00;5.80;99.90